createdAt,value
2022-11-29T00:01:09.833Z,68.47
2022-11-29T00:03:37.438Z,67.13
2022-11-29T00:06:06.309Z,74.90
2022-11-29T00:08:33.426Z,77.93
2022-11-29T00:11:07.917Z,69.35
2022-11-29T00:13:34.969Z,82.00
2022-11-29T00:16:06.721Z,69.57
2022-11-29T00:18:34.181Z,72.65
2022-11-29T00:21:06.179Z,68.68
2022-11-29T00:23:32.805Z,76.13
2022-11-29T00:26:06.750Z,71.25
2022-11-29T00:28:34.549Z,60.90
2022-11-29T00:31:01.432Z,71.40
2022-11-29T00:33:28.401Z,71.68
2022-11-29T00:35:55.101Z,70.15
2022-11-29T00:38:21.673Z,67.60
2022-11-29T00:40:52.352Z,70.72
2022-11-29T00:43:18.936Z,60.28
2022-11-29T00:45:45.591Z,77.38
2022-11-29T00:48:12.189Z,69.55
2022-11-29T00:50:38.819Z,65.13
2022-11-29T00:53:05.396Z,68.32
2022-11-29T00:55:31.978Z,70.50
2022-11-29T00:57:58.517Z,60.20
2022-11-29T01:00:25.147Z,65.07
2022-11-29T01:02:51.733Z,60.22
2022-11-29T01:05:18.448Z,65.25
2022-11-29T01:07:45.042Z,69.43
2022-11-29T01:10:11.918Z,58.13
2022-11-29T01:12:39.352Z,61.15
2022-11-29T01:15:06.872Z,58.15
2022-11-29T01:17:38.399Z,58.13
2022-11-29T01:20:07.250Z,60.10
2022-11-29T01:22:37.534Z,66.20
2022-11-29T01:25:05.966Z,66.07
2022-11-29T01:27:32.941Z,65.22
2022-11-29T01:29:59.544Z,53.47
2022-11-29T01:32:26.484Z,57.75
2022-11-29T01:34:53.150Z,57.85
2022-11-29T01:37:19.721Z,61.83
2022-11-29T01:39:46.350Z,52.35
2022-11-29T01:42:14.331Z,54.40
2022-11-29T01:44:49.984Z,54.78
2022-11-29T01:47:18.300Z,57.67
2022-11-29T01:49:48.038Z,56.42
2022-11-29T01:52:28.281Z,50.10
2022-11-29T01:55:00.140Z,56.53
2022-11-29T01:57:27.910Z,49.42
2022-11-29T02:00:00.518Z,55.15
2022-11-29T02:02:32.568Z,56.72
2022-11-29T02:05:01.873Z,53.67
2022-11-29T02:07:28.553Z,57.33
2022-11-29T02:09:55.198Z,49.05
2022-11-29T02:12:59.442Z,54.83
2022-11-29T02:15:36.588Z,51.63
2022-11-29T02:18:14.724Z,58.45
2022-11-29T02:21:08.485Z,55.03
2022-11-29T02:23:59.764Z,56.67
2022-11-29T02:26:59.290Z,58.42
2022-11-29T02:29:25.863Z,51.38
2022-11-29T02:32:04.198Z,54.88
2022-11-29T02:34:36.877Z,50.53
2022-11-29T02:37:11.804Z,49.35
2022-11-29T02:40:02.010Z,51.83
2022-11-29T02:43:00.718Z,54.58
2022-11-29T02:45:44.427Z,45.63
2022-11-29T02:48:39.218Z,48.90
2022-11-29T02:51:23.477Z,56.53
2022-11-29T02:54:10.755Z,50.35
2022-11-29T02:56:55.481Z,49.53
2022-11-29T02:59:43.878Z,52.25
2022-11-29T03:02:29.643Z,54.35
2022-11-29T03:05:17.305Z,49.50
2022-11-29T03:08:02.614Z,50.75
2022-11-29T03:10:54.605Z,47.75
2022-11-29T03:13:52.788Z,45.20
2022-11-29T03:16:51.213Z,54.58
2022-11-29T03:19:42.492Z,56.75
2022-11-29T03:22:15.473Z,52.28
2022-11-29T03:24:58.026Z,55.75
2022-11-29T03:30:19.624Z,57.10
2022-11-29T03:33:35.237Z,47.15
2022-11-29T03:36:29.327Z,49.25
2022-11-29T03:39:00.565Z,57.00
2022-11-29T03:41:51.845Z,54.85
2022-11-29T03:44:29.313Z,49.50
2022-11-29T03:47:17.163Z,49.55
2022-11-29T03:49:56.212Z,52.25
2022-11-29T03:52:34.703Z,41.20
2022-11-29T03:55:28.853Z,42.20
2022-11-29T03:58:27.669Z,54.58
2022-11-29T04:01:21.272Z,43.80
2022-11-29T04:04:22.157Z,53.17
2022-11-29T04:07:00.878Z,53.38
2022-11-29T04:09:42.878Z,52.28
2022-11-29T04:12:18.680Z,47.67
2022-11-29T04:15:10.502Z,55.85
2022-11-29T04:17:55.713Z,56.72
2022-11-29T04:20:28.060Z,53.30
2022-11-29T04:25:48.012Z,54.08
2022-11-29T04:28:40.701Z,54.95
2022-11-29T04:34:19.533Z,55.45
2022-11-29T04:37:10.661Z,57.08
2022-11-29T04:40:14.944Z,76.80
2022-11-29T04:43:18.581Z,58.60
2022-11-29T04:46:00.255Z,58.40
2022-11-29T04:48:46.871Z,44.53
2022-11-29T04:51:22.398Z,49.88
2022-11-29T04:53:58.221Z,48.67
2022-11-29T04:56:50.738Z,66.70
2022-11-29T04:59:23.121Z,82.50
2022-11-29T05:04:30.268Z,54.13
2022-11-29T05:07:15.982Z,48.67
2022-11-29T05:10:12.391Z,52.58
2022-11-29T05:13:00.728Z,55.65
2022-11-29T05:15:39.568Z,53.38
2022-11-29T05:18:46.668Z,39.95
2022-11-29T05:21:25.366Z,35.17
2022-11-29T05:24:17.417Z,45.17
2022-11-29T05:27:01.555Z,51.53
2022-11-29T05:29:51.742Z,43.05
2022-11-29T05:32:58.069Z,35.13
2022-11-29T05:35:54.169Z,63.70
2022-11-29T05:38:34.757Z,44.88
2022-11-29T05:41:27.571Z,69.10
2022-11-29T05:44:24.545Z,47.60
2022-11-29T05:46:55.758Z,45.20
2022-11-29T05:49:58.165Z,43.58
2022-11-29T05:52:27.733Z,49.13
2022-11-29T05:55:03.406Z,39.80
2022-11-29T05:58:03.614Z,66.43
2022-11-29T06:00:51.495Z,50.65
2022-11-29T06:03:38.370Z,43.58
2022-11-29T06:06:19.586Z,69.85
2022-11-29T06:08:55.529Z,56.95
2022-11-29T06:11:30.750Z,57.22
2022-11-29T06:14:34.284Z,45.45
2022-11-29T06:17:25.761Z,56.55
2022-11-29T06:19:53.248Z,48.00
2022-11-29T06:22:30.031Z,46.80
2022-11-29T06:25:15.418Z,37.13
2022-11-29T06:27:42.761Z,54.33
2022-11-29T06:30:11.615Z,64.10
2022-11-29T06:32:44.035Z,51.10
2022-11-29T06:35:49.057Z,53.63
2022-11-29T06:38:25.647Z,52.00
2022-11-29T06:40:58.618Z,51.13
2022-11-29T06:43:28.525Z,33.63
2022-11-29T06:46:23.106Z,43.75
2022-11-29T06:49:08.698Z,37.33
2022-11-29T06:51:58.323Z,31.50
2022-11-29T06:54:36.950Z,43.75
2022-11-29T06:57:26.736Z,39.33
2022-11-29T07:00:22.057Z,33.75
2022-11-29T07:03:15.241Z,33.53
2022-11-29T07:05:42.190Z,34.92
2022-11-29T07:08:18.737Z,44.40
2022-11-29T07:10:49.362Z,31.65
2022-11-29T07:13:17.671Z,35.67
2022-11-29T07:16:08.771Z,33.20
2022-11-29T07:18:50.162Z,33.17
2022-11-29T07:21:28.874Z,33.17
2022-11-29T07:24:01.281Z,30.38
2022-11-29T07:29:43.201Z,30.85
2022-11-29T07:32:22.029Z,31.90
2022-11-29T07:35:13.153Z,28.40
2022-11-29T07:38:15.345Z,26.52
2022-11-29T07:40:51.996Z,49.53
2022-11-29T07:43:52.053Z,29.75
2022-11-29T07:46:18.903Z,37.85
2022-11-29T07:48:45.885Z,35.13
2022-11-29T07:51:12.593Z,33.53
2022-11-29T07:53:42.961Z,34.40
2022-11-29T07:56:09.961Z,27.83
2022-11-29T07:58:36.672Z,21.08
2022-11-29T08:01:03.635Z,27.48
2022-11-29T08:03:30.809Z,24.65
2022-11-29T08:05:57.522Z,29.92
2022-11-29T08:08:24.117Z,33.88
2022-11-29T08:10:50.649Z,27.63
2022-11-29T08:13:20.281Z,17.63
2022-11-29T08:15:48.466Z,21.25
2022-11-29T08:18:15.713Z,19.08
2022-11-29T08:20:43.193Z,21.35
2022-11-29T08:23:12.679Z,23.73
2022-11-29T08:25:39.697Z,24.92
2022-11-29T08:28:06.672Z,24.52
2022-11-29T08:30:33.480Z,27.33
2022-11-29T08:33:00.087Z,27.65
2022-11-29T08:35:26.933Z,22.48
2022-11-29T08:37:54.879Z,23.65
2022-11-29T08:40:21.860Z,28.23
2022-11-29T08:42:48.513Z,27.42
2022-11-29T08:45:15.185Z,22.95
2022-11-29T08:47:42.901Z,22.13
2022-11-29T08:50:17.831Z,23.58
2022-11-29T08:53:05.148Z,21.70
2022-11-29T08:55:38.831Z,21.02
2022-11-29T08:58:08.911Z,22.08
2022-11-29T09:00:36.131Z,24.15
2022-11-29T09:03:23.687Z,24.52
2022-11-29T09:05:50.682Z,22.52
2022-11-29T09:08:17.542Z,20.27
2022-11-29T09:10:44.497Z,24.65
2022-11-29T09:13:11.871Z,20.58
2022-11-29T09:15:39.548Z,22.67
2022-11-29T09:18:06.389Z,20.50
2022-11-29T09:20:33.556Z,20.23
2022-11-29T09:23:01.326Z,24.52
2022-11-29T09:25:28.091Z,19.17
2022-11-29T09:27:57.259Z,23.42
2022-11-29T09:30:24.054Z,21.33
2022-11-29T09:32:50.639Z,20.58
2022-11-29T09:35:17.473Z,17.70
2022-11-29T09:37:44.236Z,20.55
2022-11-29T09:40:22.985Z,18.42
2022-11-29T09:43:00.532Z,19.27
2022-11-29T09:45:32.686Z,18.98
2022-11-29T09:48:28.277Z,16.52
2022-11-29T09:51:04.066Z,19.95
2022-11-29T09:53:43.630Z,15.85
2022-11-29T09:56:13.088Z,17.92
2022-11-29T09:58:56.757Z,19.52
2022-11-29T10:01:28.456Z,20.20
2022-11-29T10:03:59.367Z,27.80
2022-11-29T10:06:38.552Z,22.90
2022-11-29T10:09:33.482Z,24.92
2022-11-29T10:12:18.637Z,21.55
2022-11-29T10:14:53.291Z,21.92
2022-11-29T10:17:52.310Z,20.40
2022-11-29T10:20:22.705Z,22.08
2022-11-29T10:23:19.846Z,25.67
2022-11-29T10:25:49.218Z,23.77
2022-11-29T10:28:19.170Z,25.60
2022-11-29T10:30:46.263Z,24.92
2022-11-29T10:33:22.155Z,22.23
2022-11-29T10:35:55.346Z,22.27
2022-11-29T10:38:30.808Z,26.13
2022-11-29T10:41:05.766Z,17.83
2022-11-29T10:43:32.405Z,22.08
2022-11-29T10:46:00.188Z,18.75
2022-11-29T10:48:31.796Z,21.73
2022-11-29T10:50:59.641Z,26.98
2022-11-29T10:53:31.508Z,18.17
2022-11-29T10:56:22.375Z,27.10
2022-11-29T10:58:55.002Z,23.95
2022-11-29T11:01:21.979Z,22.90
2022-11-29T11:03:54.388Z,20.13
2022-11-29T11:06:42.444Z,20.85
2022-11-29T11:09:14.778Z,20.60
2022-11-29T11:14:47.876Z,18.42
2022-11-29T11:17:14.617Z,25.48
2022-11-29T11:19:41.597Z,19.50
2022-11-29T11:22:21.769Z,19.23
2022-11-29T11:25:00.265Z,20.48
2022-11-29T11:27:32.859Z,19.80
2022-11-29T11:30:00.548Z,21.05
2022-11-29T11:32:27.184Z,22.40
2022-11-29T11:35:01.350Z,19.52
2022-11-29T11:37:35.651Z,19.55
2022-11-29T11:40:30.615Z,23.98
2022-11-29T11:42:59.306Z,23.33
2022-11-29T11:45:32.864Z,17.08
2022-11-29T11:48:13.421Z,24.70
2022-11-29T11:50:56.201Z,19.83
2022-11-29T11:53:37.560Z,22.30
2022-11-29T11:56:06.239Z,20.65
2022-11-29T11:58:37.792Z,26.15
2022-11-29T12:01:14.827Z,22.60
2022-11-29T12:04:06.482Z,23.80
2022-11-29T12:06:45.141Z,27.75
2022-11-29T12:09:36.128Z,25.25
2022-11-29T12:12:10.868Z,25.42
2022-11-29T12:14:58.097Z,23.73
2022-11-29T12:17:40.034Z,22.85
2022-11-29T12:20:13.601Z,22.88
2022-11-29T12:23:07.138Z,27.17
2022-11-29T12:25:42.217Z,20.15
2022-11-29T12:28:15.818Z,22.70
2022-11-29T12:31:03.661Z,23.02
2022-11-29T12:34:03.984Z,18.38
2022-11-29T12:36:55.662Z,20.88
2022-11-29T12:39:44.010Z,22.50
2022-11-29T12:42:22.444Z,29.48
2022-11-29T12:44:57.741Z,20.65
2022-11-29T12:47:41.098Z,23.05
2022-11-29T12:50:17.607Z,24.13
2022-11-29T12:53:00.906Z,26.20
2022-11-29T12:56:06.943Z,26.45
2022-11-29T12:58:49.740Z,19.52
2022-11-29T13:01:36.674Z,27.73
2022-11-29T13:04:18.685Z,24.77
2022-11-29T13:06:52.786Z,25.88
2022-11-29T13:09:47.325Z,26.92
2022-11-29T13:12:19.997Z,24.88
2022-11-29T13:15:03.326Z,21.77
2022-11-29T13:17:56.658Z,23.83
2022-11-29T13:20:36.805Z,23.08
2022-11-29T13:23:38.982Z,23.83
2022-11-29T13:26:12.945Z,23.73
2022-11-29T13:28:44.345Z,24.13
2022-11-29T13:31:23.084Z,22.70
2022-11-29T13:33:57.640Z,25.73
2022-11-29T13:36:43.352Z,25.67
2022-11-29T13:39:26.058Z,27.27
2022-11-29T13:42:36.661Z,21.52
2022-11-29T13:45:06.986Z,25.63
2022-11-29T13:47:52.519Z,28.17
2022-11-29T13:50:43.557Z,28.65
2022-11-29T13:53:25.927Z,28.27
2022-11-29T13:56:00.713Z,25.40
2022-11-29T13:58:38.999Z,27.63
2022-11-29T14:01:14.319Z,24.77
2022-11-29T14:03:42.790Z,26.02
2022-11-29T14:06:21.611Z,24.30
2022-11-29T14:12:04.626Z,21.38
2022-11-29T14:14:41.685Z,31.15
2022-11-29T14:17:34.278Z,28.40
2022-11-29T14:20:22.716Z,24.17
2022-11-29T14:23:04.560Z,25.05
2022-11-29T14:25:51.103Z,24.50
2022-11-29T14:28:18.429Z,22.60
2022-11-29T14:30:50.978Z,22.98
2022-11-29T14:33:44.061Z,26.70
2022-11-29T14:36:21.400Z,23.50
2022-11-29T14:38:53.635Z,24.73
2022-11-29T14:41:38.266Z,24.30
2022-11-29T14:44:24.452Z,24.40
2022-11-29T14:47:07.555Z,26.15
2022-11-29T14:49:43.250Z,24.80
2022-11-29T14:52:15.554Z,28.00
2022-11-29T14:57:55.208Z,22.90
2022-11-29T15:00:26.407Z,23.40
2022-11-29T15:03:09.516Z,22.75
2022-11-29T15:05:44.514Z,29.50
2022-11-29T15:08:14.144Z,28.88
2022-11-29T15:10:44.775Z,26.67
2022-11-29T15:13:15.273Z,23.73
2022-11-29T15:16:09.540Z,24.70
2022-11-29T15:19:18.104Z,26.23
2022-11-29T15:22:09.807Z,24.58
2022-11-29T15:25:02.112Z,22.67
2022-11-29T15:27:28.876Z,22.20
2022-11-29T15:29:55.522Z,25.98
2022-11-29T15:32:26.974Z,24.00
2022-11-29T15:34:56.016Z,19.40
2022-11-29T15:37:40.590Z,22.70
2022-11-29T15:40:17.141Z,17.90
2022-11-29T15:42:50.422Z,18.90
2022-11-29T15:45:31.715Z,20.05
2022-11-29T15:48:16.953Z,26.20
2022-11-29T15:51:18.839Z,18.83
2022-11-29T15:54:10.090Z,18.23
2022-11-29T15:56:39.244Z,19.75
2022-11-29T15:59:29.726Z,19.75
2022-11-29T16:01:59.573Z,16.02
2022-11-29T16:04:27.190Z,18.42
2022-11-29T16:06:55.371Z,17.63
2022-11-29T16:09:35.257Z,18.75
2022-11-29T16:12:02.679Z,20.15
2022-11-29T16:14:29.268Z,19.13
2022-11-29T16:17:00.442Z,17.27
2022-11-29T16:19:34.318Z,17.48
2022-11-29T16:22:14.387Z,22.25
2022-11-29T16:24:58.116Z,20.63
2022-11-29T16:27:24.978Z,20.67
2022-11-29T16:29:54.981Z,22.40
2022-11-29T16:32:21.547Z,19.55
2022-11-29T16:34:48.455Z,37.20
2022-11-29T16:37:28.679Z,28.30
2022-11-29T16:40:01.326Z,51.10
2022-11-29T16:42:32.643Z,22.98
2022-11-29T16:45:04.481Z,26.00
2022-11-29T16:47:46.359Z,24.05
2022-11-29T16:50:15.009Z,24.40
2022-11-29T16:52:41.632Z,19.77
2022-11-29T16:55:08.646Z,21.40
2022-11-29T16:57:37.311Z,24.85
2022-11-29T17:00:37.133Z,22.05
2022-11-29T17:03:04.648Z,16.83
2022-11-29T17:05:31.302Z,17.65
2022-11-29T17:07:57.970Z,16.92
2022-11-29T17:10:25.678Z,18.40
2022-11-29T17:12:52.703Z,17.60
2022-11-29T17:15:19.388Z,16.27
2022-11-29T17:17:46.098Z,18.17
2022-11-29T17:20:13.423Z,16.58
2022-11-29T17:22:40.324Z,15.32
2022-11-29T17:25:07.551Z,17.13
2022-11-29T17:27:35.172Z,15.40
2022-11-29T17:30:01.792Z,17.30
2022-11-29T17:32:28.341Z,16.63
2022-11-29T17:34:54.973Z,19.17
2022-11-29T17:37:25.165Z,20.05
2022-11-29T17:39:51.870Z,17.83
2022-11-29T17:42:18.751Z,20.45
2022-11-29T17:44:45.297Z,17.98
2022-11-29T17:47:11.868Z,19.60
2022-11-29T17:49:38.449Z,19.02
2022-11-29T17:52:05.301Z,33.00
2022-11-29T17:54:35.910Z,45.22
2022-11-29T17:57:04.467Z,22.02
2022-11-29T17:59:31.076Z,20.60
2022-11-29T18:01:57.690Z,17.92
2022-11-29T18:04:24.285Z,22.15
2022-11-29T18:06:50.878Z,19.08
2022-11-29T18:09:18.674Z,19.35
2022-11-29T18:11:49.032Z,19.85
2022-11-29T18:14:22.384Z,18.77
2022-11-29T18:16:49.108Z,19.67
2022-11-29T18:19:18.840Z,18.25
2022-11-29T18:21:45.714Z,17.90
2022-11-29T18:24:12.582Z,18.08
2022-11-29T18:26:39.777Z,18.02
2022-11-29T18:29:07.504Z,16.45
2022-11-29T18:31:36.549Z,18.98
2022-11-29T18:34:09.556Z,15.02
2022-11-29T18:36:39.245Z,14.57
2022-11-29T18:39:08.810Z,17.33
2022-11-29T18:41:35.667Z,17.48
2022-11-29T18:44:07.672Z,16.33
2022-11-29T18:46:37.072Z,15.40
2022-11-29T18:49:08.615Z,14.00
2022-11-29T18:51:36.346Z,17.67
2022-11-29T18:54:03.637Z,17.17
2022-11-29T18:56:32.597Z,16.15
2022-11-29T18:59:16.410Z,15.90
2022-11-29T19:01:45.093Z,14.85
2022-11-29T19:04:14.555Z,14.50
2022-11-29T19:06:41.555Z,15.02
2022-11-29T19:09:12.925Z,17.38
2022-11-29T19:11:39.791Z,14.77
2022-11-29T19:14:11.353Z,15.95
2022-11-29T19:16:40.254Z,16.27
2022-11-29T19:19:07.083Z,14.52
2022-11-29T19:21:34.553Z,16.70
2022-11-29T19:24:04.154Z,15.02
2022-11-29T19:26:32.030Z,20.45
2022-11-29T19:29:00.859Z,15.23
2022-11-29T19:31:28.157Z,14.65
2022-11-29T19:33:55.374Z,11.95
2022-11-29T19:36:30.409Z,13.55
2022-11-29T19:39:01.577Z,15.93
2022-11-29T19:41:37.737Z,14.82
2022-11-29T19:44:07.117Z,16.15
2022-11-29T19:46:36.486Z,14.52
2022-11-29T19:49:05.222Z,13.27
2022-11-29T19:51:32.653Z,14.25
2022-11-29T19:54:02.353Z,13.13
2022-11-29T19:56:30.802Z,13.95
2022-11-29T19:58:59.778Z,14.73
2022-11-29T20:01:36.095Z,13.38
2022-11-29T20:04:06.598Z,14.23
2022-11-29T20:06:33.322Z,18.00
2022-11-29T20:08:59.971Z,11.77
2022-11-29T20:11:26.925Z,14.70
2022-11-29T20:13:56.269Z,17.35
2022-11-29T20:16:23.977Z,15.60
2022-11-29T20:18:51.622Z,15.57
2022-11-29T20:21:25.350Z,12.13
2022-11-29T20:23:57.005Z,12.10
2022-11-29T20:26:23.822Z,13.18
2022-11-29T20:28:50.642Z,13.93
2022-11-29T20:31:21.449Z,14.57
2022-11-29T20:33:49.414Z,12.73
2022-11-29T20:36:47.049Z,13.38
2022-11-29T20:39:37.937Z,14.15
2022-11-29T20:42:26.437Z,15.57
2022-11-29T20:44:54.273Z,15.85
2022-11-29T20:47:23.787Z,16.48
2022-11-29T20:49:51.227Z,13.48
2022-11-29T20:52:40.313Z,15.52
2022-11-29T20:55:07.185Z,13.20
2022-11-29T20:57:33.890Z,16.95
2022-11-29T21:00:00.531Z,17.95
2022-11-29T21:02:27.289Z,12.55
2022-11-29T21:04:53.844Z,22.25
2022-11-29T21:07:20.639Z,14.60
2022-11-29T21:09:47.324Z,13.88
2022-11-29T21:12:14.298Z,17.10
2022-11-29T21:14:41.285Z,12.18
2022-11-29T21:17:09.049Z,13.98
2022-11-29T21:19:36.222Z,13.25
2022-11-29T21:22:21.825Z,11.90
2022-11-29T21:25:22.760Z,13.82
2022-11-29T21:27:50.208Z,12.10
2022-11-29T21:30:22.902Z,12.23
2022-11-29T21:32:50.251Z,10.25
2022-11-29T21:35:17.222Z,13.23
2022-11-29T21:37:44.671Z,12.90
2022-11-29T21:40:12.788Z,14.93
2022-11-29T21:42:39.418Z,13.02
2022-11-29T21:45:13.280Z,12.57
2022-11-29T21:47:42.030Z,11.73
2022-11-29T21:50:09.058Z,13.13
2022-11-29T21:52:35.698Z,12.80
2022-11-29T21:55:02.516Z,12.52
2022-11-29T21:57:29.053Z,12.70
2022-11-29T21:59:55.661Z,11.93
2022-11-29T22:02:22.512Z,12.68
2022-11-29T22:04:49.469Z,11.10
2022-11-29T22:07:16.234Z,13.23
2022-11-29T22:09:42.938Z,11.40
2022-11-29T22:12:31.811Z,12.85
2022-11-29T22:14:56.238Z,10.88
2022-11-29T22:17:22.789Z,13.95
2022-11-29T22:19:49.387Z,11.20
2022-11-29T22:22:16.115Z,9.75
2022-11-29T22:24:42.715Z,11.52
2022-11-29T22:27:09.361Z,9.73
2022-11-29T22:29:36.026Z,10.45
2022-11-29T22:32:02.596Z,14.43
2022-11-29T22:34:29.205Z,12.45
2022-11-29T22:36:55.946Z,10.63
2022-11-29T22:39:23.066Z,11.45
2022-11-29T22:41:54.261Z,12.50
2022-11-29T22:44:22.015Z,11.45
2022-11-29T22:46:48.644Z,12.93
2022-11-29T22:49:15.280Z,14.55
2022-11-29T22:51:41.967Z,13.30
2022-11-29T22:54:11.341Z,14.30
2022-11-29T22:56:40.283Z,12.82
2022-11-29T22:59:07.529Z,15.10
2022-11-29T23:01:36.309Z,14.45
2022-11-29T23:04:06.261Z,14.70
2022-11-29T23:06:38.631Z,16.02
2022-11-29T23:11:38.965Z,16.58
2022-11-29T23:14:05.667Z,14.05
2022-11-29T23:16:33.387Z,18.15
2022-11-29T23:19:01.001Z,16.08
2022-11-29T23:21:30.641Z,16.55
2022-11-29T23:23:59.982Z,18.25
2022-11-29T23:26:30.022Z,17.00
2022-11-29T23:28:56.907Z,17.00
2022-11-29T23:31:24.409Z,16.42
2022-11-29T23:33:51.159Z,17.15
2022-11-29T23:36:17.901Z,14.10
2022-11-29T23:38:45.001Z,15.45
2022-11-29T23:41:12.345Z,16.15
2022-11-29T23:43:40.602Z,15.05
2022-11-29T23:46:09.384Z,25.08
2022-11-29T23:48:36.071Z,15.10
2022-11-29T23:51:02.834Z,14.95
2022-11-29T23:53:29.542Z,14.88
2022-11-29T23:56:00.677Z,16.77
2022-11-29T23:58:28.285Z,16.50
